Time;durP1;ratioP1;P1;durP2;ratioP2;P2;SDS_P1;SDS_P2;PMS_P1;PMS_P2;Temp;Humidity;BMP_temperature;BMP_pressure;BME280_temperature;BME280_humidity;BME280_pressure;Samples;Min_cycle;Max_cycle;Signal;HPM_P1;HPM_P2
2022/10/10 00:01:22;;;;;;;4.62;2.10;;;;;;;9.48;71.99;100119.66;1751494;81;21001;-40
2022/10/10 00:03:52;;;;;;;8.18;2.33;;;;;;;9.49;71.95;100129.34;1751001;81;20989;-40
2022/10/10 00:06:19;;;;;;;5.25;1.80;;;;;;;9.46;71.69;100133.52;1751097;81;21539;-40
2022/10/10 00:08:46;;;;;;;5.53;1.92;;;;;;;9.42;71.69;100129.89;1746112;81;21504;-41
2022/10/10 00:11:17;;;;;;;5.30;1.87;;;;;;;9.47;71.55;100135.10;1751129;81;21284;-40
2022/10/10 00:13:45;;;;;;;6.40;2.02;;;;;;;9.48;71.45;100141.31;1750780;82;20918;-40
2022/10/10 00:16:13;;;;;;;7.35;2.08;;;;;;;9.43;71.52;100132.04;1751048;81;20994;-40
2022/10/10 00:18:42;;;;;;;3.50;1.67;;;;;;;9.36;71.59;100130.42;1751062;81;21496;-40
2022/10/10 00:21:11;;;;;;;4.40;1.50;;;;;;;9.32;71.76;100130.86;1751057;81;20966;-40
2022/10/10 00:23:38;;;;;;;8.30;1.95;;;;;;;9.30;71.78;100134.45;1751070;82;21136;-40
2022/10/10 00:26:07;;;;;;;6.83;2.20;;;;;;;9.32;71.73;100130.86;1751263;81;20954;-40
2022/10/10 00:28:37;;;;;;;4.35;1.92;;;;;;;9.33;71.69;100131.09;1751078;82;20953;-40
2022/10/10 00:31:07;;;;;;;4.80;1.67;;;;;;;9.31;71.83;100136.03;1751365;82;20978;-40
2022/10/10 00:33:36;;;;;;;4.85;1.70;;;;;;;9.29;71.80;100130.98;1751085;81;20962;-40
2022/10/10 00:36:05;;;;;;;6.25;1.80;;;;;;;9.22;71.88;100133.97;1715251;83;21091;-40
2022/10/10 00:38:31;;;;;;;2.92;1.50;;;;;;;9.19;71.92;100130.58;1715058;83;21514;-40
2022/10/10 00:40:58;;;;;;;10.00;1.62;;;;;;;9.20;71.90;100132.17;1715038;83;20968;-40
2022/10/10 00:43:26;;;;;;;4.95;2.00;;;;;;;9.18;71.92;100131.70;1715028;83;21029;-40
2022/10/10 00:45:52;;;;;;;5.75;1.70;;;;;;;9.13;72.08;100137.55;1714965;83;21044;-40
2022/10/10 00:48:30;;;;;;;3.72;2.05;;;;;;;9.12;72.13;100133.25;1714918;83;21259;-40
2022/10/10 00:51:05;;;;;;;6.10;2.33;;;;;;;9.07;72.13;100135.36;1714358;83;20929;-41
2022/10/10 00:53:40;;;;;;;2.85;1.65;;;;;;;9.04;72.21;100134.12;1707264;84;20965;-40
2022/10/10 00:56:07;;;;;;;5.83;2.00;;;;;;;9.07;72.15;100137.50;1742965;82;20993;-40
2022/10/10 00:58:35;;;;;;;4.45;2.00;;;;;;;9.10;72.22;100134.72;1742985;82;21852;-40
2022/10/10 01:01:02;;;;;;;7.80;2.00;;;;;;;9.09;72.03;100139.89;1742897;82;21222;-40
2022/10/10 01:03:31;;;;;;;6.00;1.82;;;;;;;9.03;72.09;100134.44;1742937;81;20962;-40
2022/10/10 01:05:57;;;;;;;3.45;1.87;;;;;;;8.97;72.12;100135.19;1742984;81;20970;-40
2022/10/10 01:08:25;;;;;;;5.00;1.70;;;;;;;8.93;72.22;100131.57;1742922;82;21017;-40
2022/10/10 01:11:13;;;;;;;4.05;1.70;;;;;;;8.97;72.18;100138.45;1742888;82;21091;-40
2022/10/10 01:14:07;;;;;;;3.62;1.70;;;;;;;8.98;72.10;100141.40;1742996;82;21145;-40
2022/10/10 01:16:45;;;;;;;2.87;1.90;;;;;;;8.92;72.20;100143.50;1742453;81;20976;-40
2022/10/10 01:19:47;;;;;;;7.58;2.33;;;;;;;8.86;72.21;100147.51;1707194;83;21017;-40
2022/10/10 01:22:40;;;;;;;5.03;1.95;;;;;;;8.82;72.21;100151.20;1707267;84;21093;-40
2022/10/10 01:25:30;;;;;;;4.10;1.57;;;;;;;8.81;72.08;100148.29;1707102;84;21018;-40
2022/10/10 01:28:02;;;;;;;3.52;1.60;;;;;;;8.83;72.08;100159.55;1707276;84;26499;-40
2022/10/10 01:30:29;;;;;;;3.72;1.80;;;;;;;8.82;72.14;100159.31;1707333;84;21813;-40
2022/10/10 01:33:08;;;;;;;7.47;1.90;;;;;;;8.76;72.13;100163.34;1707490;84;21637;-40
2022/10/10 01:36:04;;;;;;;4.78;1.82;;;;;;;8.73;72.23;100159.37;1707031;84;21570;-40
2022/10/10 01:38:49;;;;;;;3.30;1.55;;;;;;;8.67;72.30;100168.22;1707464;84;21088;-40
2022/10/10 01:41:26;;;;;;;4.72;1.52;;;;;;;8.63;72.24;100167.85;1743078;82;23144;-40
2022/10/10 01:43:54;;;;;;;4.87;1.67;;;;;;;8.65;72.16;100171.03;1743034;82;21013;-40
2022/10/10 01:46:21;;;;;;;3.27;1.40;;;;;;;7.08;72.18;99933.63;1743104;82;20974;-40
2022/10/10 01:48:50;;;;;;;5.25;1.85;;;;;;;8.60;72.46;100173.92;1742960;82;20985;-40
2022/10/10 01:51:40;;;;;;;4.12;1.80;;;;;;;8.57;72.47;100171.85;1742949;81;21072;-40
2022/10/10 01:54:19;;;;;;;5.47;1.90;;;;;;;8.50;72.50;100173.73;1706983;83;21517;-40
2022/10/10 01:57:19;;;;;;;4.72;1.75;;;;;;;8.47;72.53;100173.02;1706751;84;20974;-40
2022/10/10 02:00:08;;;;;;;6.70;2.00;;;;;;;8.51;72.46;100175.87;1742891;81;21005;-40
2022/10/10 02:03:10;;;;;;;5.78;1.87;;;;;;;8.49;72.48;100186.20;1707312;83;21879;-40
2022/10/10 02:05:51;;;;;;;4.65;1.72;;;;;;;8.45;72.65;100179.87;1677181;85;21033;-40
2022/10/10 02:08:32;;;;;;;3.58;1.70;;;;;;;8.40;72.72;100185.45;1677456;85;21285;-40
2022/10/10 02:11:03;;;;;;;3.40;1.50;;;;;;;8.37;72.67;100188.82;1676207;85;20981;-40
2022/10/10 02:13:59;;;;;;;4.97;1.47;;;;;;;8.36;72.70;100196.69;1677198;85;20993;-40
2022/10/10 02:16:31;;;;;;;3.72;1.72;;;;;;;8.36;72.62;100193.43;1677587;85;21033;-40
2022/10/10 02:18:58;;;;;;;3.85;1.90;;;;;;;8.29;72.72;100199.33;1677249;85;21069;-40
2022/10/10 02:21:25;;;;;;;6.60;1.70;;;;;;;8.25;72.98;100197.56;1649896;85;21241;-40
2022/10/10 02:23:53;;;;;;;4.80;1.85;;;;;;;8.21;72.97;100197.42;1677155;85;21053;-40
2022/10/10 02:26:21;;;;;;;5.22;1.77;;;;;;;8.17;73.22;100195.69;1677274;85;20942;-40
2022/10/10 02:29:10;;;;;;;2.22;1.27;;;;;;;8.16;73.30;100192.75;1677264;85;20969;-40
2022/10/10 02:31:52;;;;;;;5.10;2.05;;;;;;;8.19;73.17;100199.64;1677450;85;27384;-40
2022/10/10 02:34:24;;;;;;;4.90;1.60;;;;;;;8.20;73.21;100209.34;1675809;85;23149;-40
2022/10/10 02:36:55;;;;;;;4.70;1.52;;;;;;;8.17;73.32;100206.50;1725990;82;21280;-40
2022/10/10 02:39:25;;;;;;;2.77;1.40;;;;;;;8.14;73.28;100209.27;1677551;85;21033;-40
2022/10/10 02:41:52;;;;;;;5.78;1.50;;;;;;;8.10;73.26;100207.53;1725697;82;20981;-40
2022/10/10 02:44:19;;;;;;;4.78;1.70;;;;;;;8.09;73.25;100214.05;1712029;82;21021;-40
2022/10/10 02:46:47;;;;;;;5.22;1.65;;;;;;;8.13;73.16;100221.18;1711935;83;21543;-40
2022/10/10 02:49:23;;;;;;;3.47;1.82;;;;;;;8.12;73.13;100219.62;1711900;83;21512;-40
2022/10/10 02:51:50;;;;;;;4.47;1.70;;;;;;;8.07;73.20;100222.48;1686685;83;20903;-40
2022/10/10 02:54:17;;;;;;;3.08;1.52;;;;;;;8.02;73.39;100218.61;1724428;83;21539;-40
2022/10/10 02:56:44;;;;;;;6.67;1.72;;;;;;;8.01;73.43;100220.27;1724647;82;21598;-40
2022/10/10 02:59:11;;;;;;;3.65;1.80;;;;;;;8.02;73.33;100217.25;1724555;82;21504;-40
2022/10/10 03:01:38;;;;;;;5.62;1.57;;;;;;;8.07;73.10;100220.34;1724432;83;21481;-40
2022/10/10 03:04:04;;;;;;;4.65;1.40;;;;;;;8.10;73.03;100224.53;1719645;83;21017;-40
2022/10/10 03:06:32;;;;;;;6.05;1.60;;;;;;;8.00;73.15;100224.08;1724641;83;20910;-40
2022/10/10 03:08:59;;;;;;;5.10;1.50;;;;;;;7.93;73.32;100222.44;1724419;83;20973;-40
2022/10/10 03:11:26;;;;;;;4.28;1.40;;;;;;;7.89;73.48;100222.27;1724567;83;21141;-40
2022/10/10 03:13:53;;;;;;;3.47;1.52;;;;;;;7.89;73.40;100220.14;1724327;83;21533;-40
2022/10/10 03:16:19;;;;;;;3.00;1.50;;;;;;;7.94;73.34;100221.33;1724575;83;21087;-40
2022/10/10 03:18:46;;;;;;;5.40;1.65;;;;;;;7.97;73.30;100224.17;1724396;83;21535;-40
2022/10/10 03:21:13;;;;;;;3.72;1.47;;;;;;;7.99;73.28;100227.33;1724505;83;21056;-40
2022/10/10 03:23:40;;;;;;;2.67;1.60;;;;;;;8.01;73.21;100233.77;1724435;83;23229;-40
2022/10/10 03:26:08;;;;;;;3.83;2.00;;;;;;;8.00;73.00;100233.53;1724419;83;21085;-40
2022/10/10 03:28:37;;;;;;;7.83;1.80;;;;;;;7.95;72.89;100228.30;1724672;82;20992;-40
2022/10/10 03:31:04;;;;;;;4.05;1.40;;;;;;;7.94;72.80;100236.18;1724354;82;21041;-40
2022/10/10 03:33:32;;;;;;;8.15;1.70;;;;;;;7.98;72.56;100239.82;1724634;83;20997;-40
2022/10/10 03:35:59;;;;;;;3.27;1.50;;;;;;;7.99;72.58;100237.36;1664538;84;21246;-40
2022/10/10 03:38:27;;;;;;;5.78;1.72;;;;;;;7.98;72.55;100233.07;1690175;84;21040;-40
2022/10/10 03:40:54;;;;;;;2.47;1.25;;;;;;;7.98;72.52;100238.47;1690058;84;20977;-40
2022/10/10 03:43:21;;;;;;;1.95;1.40;;;;;;;7.96;72.42;100244.73;1690048;84;21028;-40
2022/10/10 03:45:48;;;;;;;4.72;1.60;;;;;;;7.93;72.25;100247.53;1689854;84;21025;-40
2022/10/10 03:48:15;;;;;;;5.05;1.60;;;;;;;7.86;72.10;100247.21;1664342;84;23117;-40
2022/10/10 03:50:42;;;;;;;5.87;1.60;;;;;;;7.83;72.11;100245.95;1689720;84;21564;-40
2022/10/10 03:53:09;;;;;;;2.60;1.87;;;;;;;7.85;72.14;100243.72;1686830;84;21080;-40
2022/10/10 03:55:39;;;;;;;4.97;1.62;;;;;;;7.84;72.18;100245.41;1684734;85;21614;-40
2022/10/10 03:58:06;;;;;;;4.42;1.70;;;;;;;7.80;72.19;100243.08;1685044;85;20993;-40
2022/10/10 04:00:33;;;;;;;7.95;2.02;;;;;;;7.75;72.24;100254.04;1684700;85;21348;-40
2022/10/10 04:03:04;;;;;;;5.33;1.67;;;;;;;7.69;72.38;100263.43;1684669;85;21007;-40
2022/10/10 04:05:28;;;;;;;4.28;1.80;;;;;;;7.71;72.51;100263.89;1684362;85;21511;-40
2022/10/10 04:07:55;;;;;;;3.45;1.57;;;;;;;7.78;72.28;100270.41;1684668;85;21052;-40
2022/10/10 04:10:23;;;;;;;4.50;1.52;;;;;;;7.82;72.09;100263.81;1684728;85;21056;-40
2022/10/10 04:12:50;;;;;;;6.97;1.65;;;;;;;7.81;72.13;100260.87;1684703;85;21198;-40
2022/10/10 04:15:19;;;;;;;6.15;1.77;;;;;;;7.80;72.08;100265.47;1684730;85;21043;-40
2022/10/10 04:17:46;;;;;;;3.22;1.60;;;;;;;7.78;71.99;100269.62;1685212;85;21005;-40
2022/10/10 04:20:14;;;;;;;4.35;1.37;;;;;;;7.73;71.91;100265.73;1684832;85;21081;-40
2022/10/10 04:22:43;;;;;;;3.70;1.50;;;;;;;7.66;71.83;100269.45;1684858;85;21518;-40
2022/10/10 04:25:11;;;;;;;4.55;1.47;;;;;;;7.61;71.95;100268.25;1684790;85;21214;-40
2022/10/10 04:27:38;;;;;;;3.65;1.70;;;;;;;7.61;72.08;100262.85;1684905;85;20905;-40
2022/10/10 04:30:07;;;;;;;4.78;1.85;;;;;;;7.57;72.30;100265.95;1684834;85;21012;-40
2022/10/10 04:32:33;;;;;;;2.37;1.20;;;;;;;7.51;72.58;100269.91;1684972;85;21032;-40
2022/10/10 04:35:03;;;;;;;3.02;1.60;;;;;;;7.43;72.69;100270.95;1684581;85;20958;-40
2022/10/10 04:37:29;;;;;;;6.33;1.92;;;;;;;7.36;73.04;100273.31;1684988;85;21085;-40
2022/10/10 04:39:56;;;;;;;6.15;1.67;;;;;;;7.34;73.16;100270.16;1684538;85;21045;-40
2022/10/10 04:42:23;;;;;;;5.72;1.82;;;;;;;7.39;73.19;100271.35;1684660;85;21052;-40
2022/10/10 04:44:50;;;;;;;4.00;1.77;;;;;;;7.42;73.10;100274.75;1684487;85;21982;-40
2022/10/10 04:47:16;;;;;;;7.70;2.15;;;;;;;7.39;73.30;100277.30;1684655;85;21105;-40
2022/10/10 04:49:44;;;;;;;4.45;1.65;;;;;;;7.37;73.62;100283.55;1684710;85;21221;-40
2022/10/10 04:52:11;;;;;;;4.10;1.80;;;;;;;7.37;73.76;100282.20;1684598;85;21028;-40
2022/10/10 04:54:38;;;;;;;6.92;1.75;;;;;;;7.41;73.76;100288.00;1719397;82;21029;-40
2022/10/10 04:57:04;;;;;;;3.95;1.77;;;;;;;7.43;73.66;100293.09;1719426;83;21021;-40
2022/10/10 04:59:31;;;;;;;4.17;1.60;;;;;;;7.49;73.81;100292.38;1719491;83;21045;-40
2022/10/10 05:01:58;;;;;;;3.20;1.60;;;;;;;7.49;73.91;100297.78;1719462;83;21321;-40
2022/10/10 05:04:25;;;;;;;3.37;1.80;;;;;;;7.48;74.14;100297.53;1719566;83;21760;-40
2022/10/10 05:06:52;;;;;;;4.97;1.87;;;;;;;7.43;74.29;100301.98;1719572;83;21078;-40
2022/10/10 05:09:20;;;;;;;5.20;1.52;;;;;;;7.45;74.38;100311.11;1719578;83;21093;-40
2022/10/10 05:11:47;;;;;;;4.00;1.55;;;;;;;7.50;74.58;100315.56;1719620;83;21036;-41
2022/10/10 05:14:15;;;;;;;2.55;1.47;;;;;;;7.57;74.67;100307.78;1719712;83;21137;-40
2022/10/10 05:16:42;;;;;;;5.85;1.70;;;;;;;7.60;74.93;100313.33;1719532;83;20898;-40
2022/10/10 05:19:08;;;;;;;6.37;1.98;;;;;;;7.63;75.06;100315.97;1719377;83;21554;-40
2022/10/10 05:21:36;;;;;;;5.08;1.60;;;;;;;7.62;75.06;100317.07;1719404;83;21042;-40
2022/10/10 05:24:03;;;;;;;4.47;1.70;;;;;;;7.68;75.13;100315.81;1719329;83;21120;-40
2022/10/10 05:26:31;;;;;;;3.55;1.67;;;;;;;7.76;74.97;100324.46;1719752;83;21212;-40
2022/10/10 05:28:58;;;;;;;4.58;2.22;;;;;;;7.83;74.83;100330.20;1719260;83;21060;-41
2022/10/10 05:31:25;;;;;;;3.72;2.05;;;;;;;7.88;75.12;100327.89;1719448;83;21033;-40
2022/10/10 05:33:52;;;;;;;4.83;1.82;;;;;;;7.93;75.04;100327.73;1719397;83;21049;-41
2022/10/10 05:36:19;;;;;;;4.22;1.40;;;;;;;7.95;74.80;100330.34;1719598;83;21093;-41
2022/10/10 05:38:45;;;;;;;3.77;1.72;;;;;;;7.97;74.79;100333.53;1719502;83;21137;-40
2022/10/10 05:41:12;;;;;;;5.37;1.85;;;;;;;8.07;74.72;100331.86;1719422;83;20973;-41
2022/10/10 05:43:39;;;;;;;5.87;2.05;;;;;;;8.17;74.63;100328.84;1719525;83;21582;-41
2022/10/10 05:46:06;;;;;;;4.45;2.20;;;;;;;8.21;74.48;100328.43;1719507;83;21453;-41
2022/10/10 05:48:33;;;;;;;4.70;1.70;;;;;;;8.22;74.52;100328.67;1719587;83;21045;-41
2022/10/10 05:51:00;;;;;;;4.87;1.70;;;;;;;8.22;74.46;100334.63;1719551;83;21140;-40
2022/10/10 05:53:29;;;;;;;3.62;1.85;;;;;;;8.22;74.58;100333.28;1716628;83;20982;-40
2022/10/10 05:55:56;;;;;;;6.03;1.85;;;;;;;8.28;74.42;100324.67;1711785;83;21077;-41
2022/10/10 05:58:23;;;;;;;2.47;1.70;;;;;;;8.34;74.27;100329.94;1712016;83;21061;-40
2022/10/10 06:00:51;;;;;;;4.83;1.90;;;;;;;8.34;74.47;100331.29;1711758;83;21025;-40
2022/10/10 06:03:18;;;;;;;2.75;1.70;;;;;;;8.38;74.42;100336.28;1711962;82;22016;-41
2022/10/10 06:05:49;;;;;;;3.80;1.72;;;;;;;8.38;74.44;100339.78;1711803;82;21531;-40
2022/10/10 06:08:16;;;;;;;5.42;1.70;;;;;;;8.40;74.52;100347.58;1711697;83;21034;-40
2022/10/10 06:10:44;;;;;;;6.62;2.02;;;;;;;8.49;74.55;100347.00;1707767;82;21014;-41
2022/10/10 06:13:14;;;;;;;3.75;1.65;;;;;;;8.53;74.31;100345.24;1711863;82;21021;-40
2022/10/10 06:15:41;;;;;;;4.45;1.70;;;;;;;8.50;74.51;100344.55;1711745;83;21163;-41
2022/10/10 06:18:08;;;;;;;3.75;1.72;;;;;;;8.49;74.76;100349.16;1711549;83;21025;-40
2022/10/10 06:20:37;;;;;;;4.60;1.95;;;;;;;8.51;74.91;100348.28;1711706;83;20939;-40
2022/10/10 06:23:05;;;;;;;3.35;1.55;;;;;;;8.59;74.91;100348.02;1711872;83;21076;-41
2022/10/10 06:25:32;;;;;;;5.83;1.85;;;;;;;8.69;75.04;100350.38;1711841;83;21022;-41
2022/10/10 06:31:29;;;;;;;4.20;1.82;;;;;;;8.86;74.94;100358.42;1731025;82;20954;-41
2022/10/10 06:33:55;;;;;;;6.03;2.00;;;;;;;8.82;75.04;100360.75;1742943;82;20970;-41
2022/10/10 06:36:22;;;;;;;5.87;1.80;;;;;;;8.88;74.73;100360.26;1742866;82;21540;-41
2022/10/10 06:42:41;;;;;;;4.30;2.35;;;;;;;8.95;74.32;100360.56;1739750;82;22575;-44
2022/10/10 06:45:10;;;;;;;4.65;2.33;;;;;;;8.93;74.50;100363.34;1741325;82;21018;-44
2022/10/10 06:47:37;;;;;;;4.42;1.87;;;;;;;8.98;74.68;100361.26;1741490;82;20959;-44
2022/10/10 06:50:05;;;;;;;7.08;2.10;;;;;;;9.09;74.39;100365.20;1741437;82;21004;-44
2022/10/10 06:52:32;;;;;;;3.72;2.27;;;;;;;9.18;74.27;100363.01;1741319;82;21494;-44
2022/10/10 06:54:59;;;;;;;4.70;2.40;;;;;;;9.18;74.09;100367.86;1741266;82;21292;-44
2022/10/10 06:57:27;;;;;;;3.55;1.90;;;;;;;9.23;74.39;100362.83;1741162;82;20960;-44
2022/10/10 06:59:54;;;;;;;5.20;2.12;;;;;;;9.29;74.17;100364.23;1741288;82;21038;-44
2022/10/10 07:02:22;;;;;;;5.12;2.33;;;;;;;9.42;74.33;100368.62;1741235;82;21050;-44
2022/10/10 07:04:49;;;;;;;8.18;2.30;;;;;;;9.52;73.90;100369.59;1741477;82;21086;-44
2022/10/10 07:07:15;;;;;;;4.55;2.00;;;;;;;9.58;73.83;100365.59;1741277;82;21159;-44
2022/10/10 07:09:42;;;;;;;5.90;2.30;;;;;;;9.68;74.13;100366.56;1741276;82;20971;-44
2022/10/10 07:12:09;;;;;;;5.05;1.75;;;;;;;9.80;73.52;100372.04;1741313;82;21066;-44
2022/10/10 07:14:36;;;;;;;6.80;2.15;;;;;;;9.87;73.29;100364.20;1741382;82;21621;-44
2022/10/10 07:17:03;;;;;;;8.33;2.30;;;;;;;9.94;73.05;100366.36;1741567;82;21675;-44
2022/10/10 07:19:31;;;;;;;6.08;2.02;;;;;;;9.95;72.86;100362.53;1741454;82;22034;-44
2022/10/10 07:21:58;;;;;;;5.97;2.45;;;;;;;9.93;72.65;100363.41;1736436;82;21493;-44
2022/10/10 07:24:25;;;;;;;4.15;1.90;;;;;;;9.97;72.91;100357.59;1741493;82;21007;-44
2022/10/10 07:26:53;;;;;;;4.87;2.00;;;;;;;10.02;72.82;100358.16;1741300;82;21689;-44
2022/10/10 07:29:23;;;;;;;3.45;1.70;;;;;;;10.13;72.95;100359.91;1741554;82;21047;-44
2022/10/10 07:31:50;;;;;;;3.92;1.82;;;;;;;10.22;72.57;100357.14;1741487;82;21286;-44
2022/10/10 07:34:19;;;;;;;5.75;2.17;;;;;;;10.26;72.61;100359.45;1741244;82;20943;-44
2022/10/10 07:36:49;;;;;;;4.87;1.90;;;;;;;10.31;72.48;100361.36;1741554;82;20971;-44
2022/10/10 07:39:19;;;;;;;4.30;1.92;;;;;;;10.37;72.37;100366.81;1741203;82;20986;-44
2022/10/10 07:41:49;;;;;;;3.60;1.98;;;;;;;10.49;72.00;100362.58;1721987;82;21632;-44
2022/10/10 07:44:16;;;;;;;4.53;1.92;;;;;;;10.58;71.96;100370.84;1741583;82;21147;-44
2022/10/10 07:46:42;;;;;;;5.85;2.15;;;;;;;10.66;72.00;100359.11;1741467;82;20991;-44
2022/10/10 07:49:09;;;;;;;2.87;1.52;;;;;;;10.76;71.81;100358.69;1741772;82;20957;-44
2022/10/10 07:51:38;;;;;;;5.90;1.75;;;;;;;10.86;71.86;100362.33;1741565;82;20983;-44
2022/10/10 07:54:05;;;;;;;2.92;1.52;;;;;;;10.99;70.88;100366.42;1741559;82;21046;-44
2022/10/10 07:56:32;;;;;;;4.08;1.80;;;;;;;11.14;69.76;100364.38;1741698;82;21145;-44
2022/10/10 07:58:59;;;;;;;2.80;1.60;;;;;;;11.25;69.23;100359.53;1741579;82;20931;-44
2022/10/10 08:01:27;;;;;;;4.33;1.80;;;;;;;11.32;68.30;100362.48;1741323;82;20900;-44
2022/10/10 08:03:55;;;;;;;3.72;1.60;;;;;;;11.38;68.10;100362.23;1741457;82;21038;-44
2022/10/10 08:06:22;;;;;;;4.95;1.75;;;;;;;11.43;68.01;100367.44;1741328;82;21023;-44
2022/10/10 08:08:51;;;;;;;3.12;1.47;;;;;;;11.54;68.02;100372.64;1741489;82;21471;-44
2022/10/10 08:11:20;;;;;;;5.00;1.60;;;;;;;11.67;67.16;100364.70;1741333;82;21620;-44
2022/10/10 08:13:47;;;;;;;4.08;1.50;;;;;;;11.80;66.52;100357.37;1741596;82;21046;-44
2022/10/10 08:16:16;;;;;;;3.45;1.35;;;;;;;11.87;66.22;100360.28;1741255;82;21071;-44
2022/10/10 08:18:43;;;;;;;4.10;1.50;;;;;;;11.96;65.83;100368.52;1741490;82;20979;-44
2022/10/10 08:21:12;;;;;;;2.55;1.30;;;;;;;12.06;65.52;100372.68;1741342;82;22002;-44
2022/10/10 08:23:39;;;;;;;3.50;1.55;;;;;;;12.12;64.38;100371.31;1741512;82;21458;-44
2022/10/10 08:26:08;;;;;;;4.12;1.70;;;;;;;12.18;64.45;100363.14;1741209;82;21355;-44
2022/10/10 08:28:36;;;;;;;5.30;1.65;;;;;;;12.25;64.09;100367.41;1741519;82;21490;-44
2022/10/10 08:31:08;;;;;;;2.77;1.67;;;;;;;12.32;63.48;100371.70;1741376;82;21106;-44
2022/10/10 08:33:34;;;;;;;2.80;1.40;;;;;;;12.41;63.34;100369.61;1741414;82;21936;-44
2022/10/10 08:36:07;;;;;;;2.77;1.37;;;;;;;12.44;62.09;100362.11;1741324;82;20943;-44
2022/10/10 08:38:33;;;;;;;5.53;1.60;;;;;;;12.48;62.69;100372.55;1741414;82;21042;-44
2022/10/10 08:41:21;;;;;;;5.45;2.15;;;;;;;12.56;62.48;100368.07;1741382;82;20971;-43
2022/10/10 08:43:55;;;;;;;4.45;1.80;;;;;;;12.66;62.02;100369.50;1741458;82;21091;-44
2022/10/10 08:46:33;;;;;;;4.55;1.72;;;;;;;12.74;61.14;100365.81;1741219;82;21086;-44
2022/10/10 08:49:10;;;;;;;6.20;1.50;;;;;;;12.81;61.44;100366.80;1741305;82;21575;-44
2022/10/10 08:51:31;;;;;;;2.95;1.57;;;;;;;12.89;60.82;100368.55;1740762;82;21027;-44
2022/10/10 08:54:00;;;;;;;6.47;1.72;;;;;;;12.97;60.18;100360.02;1742939;82;21832;-45
2022/10/10 08:56:30;;;;;;;6.47;1.60;;;;;;;13.07;60.12;100365.70;1749715;82;21592;-45
2022/10/10 08:59:14;;;;;;;2.70;1.75;;;;;;;13.18;59.88;100361.92;1749532;82;21169;-44
2022/10/10 09:01:42;;;;;;;2.08;1.27;;;;;;;13.31;59.86;100368.84;1749474;82;20919;-44
2022/10/10 09:04:16;;;;;;;5.65;1.70;;;;;;;13.43;58.91;100357.06;1749640;82;21079;-44
2022/10/10 09:07:04;;;;;;;2.17;1.30;;;;;;;13.54;58.21;100362.19;1749259;82;21349;-45
2022/10/10 09:10:04;;;;;;;3.08;1.32;;;;;;;13.58;57.31;100358.18;1749725;82;21276;-44
2022/10/10 09:13:00;;;;;;;2.70;1.35;;;;;;;13.58;56.46;100354.09;1749469;81;21141;-44
2022/10/10 09:15:44;;;;;;;2.47;1.40;;;;;;;13.60;57.27;100355.91;1749148;82;21575;-44
2022/10/10 09:18:30;;;;;;;4.78;1.70;;;;;;;13.67;57.18;100364.22;1749313;82;21480;-44
2022/10/10 09:21:15;;;;;;;3.17;1.52;;;;;;;13.72;55.62;100361.22;1749280;82;21046;-44
2022/10/10 09:24:05;;;;;;;2.72;1.40;;;;;;;13.70;56.92;100357.48;1749562;82;21106;-45
2022/10/10 09:26:48;;;;;;;6.83;1.85;;;;;;;13.75;57.03;100357.77;1749194;82;21245;-44
2022/10/10 09:29:38;;;;;;;4.00;1.37;;;;;;;13.78;56.11;100362.53;1740677;82;20986;-44
2022/10/10 09:32:19;;;;;;;2.58;1.20;;;;;;;13.80;56.20;100354.77;1749304;82;21022;-44
2022/10/10 09:35:15;;;;;;;4.22;1.45;;;;;;;13.90;56.50;100359.66;1749596;82;21097;-44
2022/10/10 09:37:42;;;;;;;2.20;1.20;;;;;;;14.02;54.97;100362.84;1716699;82;21073;-44
2022/10/10 09:40:25;;;;;;;3.40;1.37;;;;;;;14.11;54.52;100358.76;1749219;82;22012;-44
2022/10/10 09:42:52;;;;;;;3.35;1.47;;;;;;;14.24;54.34;100362.12;1749255;82;21034;-44
2022/10/10 09:45:33;;;;;;;3.33;1.30;;;;;;;14.30;53.39;100352.50;1749318;82;20966;-44
2022/10/10 09:48:00;;;;;;;3.33;1.20;;;;;;;14.25;51.25;100356.88;1748673;82;20974;-44
2022/10/10 09:50:27;;;;;;;4.67;1.60;;;;;;;14.22;51.86;100355.68;1749298;82;21027;-45
2022/10/10 09:52:53;;;;;;;4.92;1.32;;;;;;;14.29;52.88;100344.89;1749279;82;21241;-44
2022/10/10 09:55:29;;;;;;;2.60;1.55;;;;;;;14.39;52.72;100341.39;1695560;82;21038;-45
2022/10/10 09:58:00;;;;;;;2.72;1.52;;;;;;;14.45;52.95;100339.96;1746093;82;21137;-45
2022/10/10 10:00:33;;;;;;;2.35;1.05;;;;;;;14.48;52.52;100327.73;1747064;82;21043;-45
2022/10/10 10:03:07;;;;;;;2.30;1.30;;;;;;;14.57;50.33;100342.54;1746826;82;21287;-45
2022/10/10 10:05:34;;;;;;;2.35;1.27;;;;;;;14.70;48.86;100338.48;1747050;82;21608;-45
2022/10/10 10:08:03;;;;;;;2.30;1.00;;;;;;;14.83;49.58;100335.78;1746853;82;21525;-45
2022/10/10 10:10:33;;;;;;;3.15;1.32;;;;;;;14.97;48.79;100331.13;1746925;82;21014;-45
2022/10/10 10:13:00;;;;;;;4.50;1.10;;;;;;;15.06;48.63;100325.63;1720023;82;21086;-45
2022/10/10 10:15:31;;;;;;;5.15;1.30;;;;;;;15.18;47.81;100326.81;1746916;82;21528;-45
2022/10/10 10:18:19;;;;;;;2.77;1.15;;;;;;;15.29;46.31;100330.29;1747352;82;21332;-44
2022/10/10 10:20:53;;;;;;;2.52;0.85;;;;;;;15.40;45.47;100328.48;1747152;82;21080;-44
2022/10/10 10:23:28;;;;;;;2.10;0.80;;;;;;;15.44;45.80;100321.91;1746979;82;21078;-44
2022/10/10 10:26:07;;;;;;;2.30;0.95;;;;;;;15.59;45.16;100318.26;1746803;82;21030;-45
2022/10/10 10:28:41;;;;;;;1.40;0.85;;;;;;;15.76;44.01;100321.61;1739301;82;21078;-45
2022/10/10 10:31:36;;;;;;;1.55;1.00;;;;;;;15.92;43.87;100320.28;1746914;82;21238;-45
2022/10/10 10:34:30;;;;;;;2.40;1.00;;;;;;;16.14;43.79;100328.73;1746576;82;20998;-45
2022/10/10 10:37:05;;;;;;;0.95;0.60;;;;;;;16.31;42.30;100324.05;1746758;82;21047;-45
2022/10/10 10:39:52;;;;;;;3.22;1.02;;;;;;;16.40;41.25;100314.38;1745399;82;21544;-45
2022/10/10 10:42:46;;;;;;;4.40;0.82;;;;;;;16.48;41.17;100309.18;1746792;82;21508;-45
2022/10/10 10:45:28;;;;;;;2.05;1.00;;;;;;;16.52;40.58;100317.42;1747035;82;21875;-45
2022/10/10 10:48:28;;;;;;;1.92;0.82;;;;;;;16.53;39.45;100323.11;1747130;82;21071;-45
2022/10/10 10:51:22;;;;;;;3.17;0.80;;;;;;;16.55;39.57;100315.32;1746889;82;20931;-45
2022/10/10 10:54:06;;;;;;;1.72;0.98;;;;;;;16.63;40.78;100307.98;1746836;82;21037;-45
2022/10/10 10:56:41;;;;;;;2.12;1.00;;;;;;;16.85;40.76;100302.30;1741213;82;21044;-45
2022/10/10 10:59:22;;;;;;;3.77;1.10;;;;;;;17.03;39.27;100309.32;1741524;82;21117;-45
2022/10/10 11:02:30;;;;;;;1.60;0.90;;;;;;;17.10;40.00;100304.45;1741275;82;20952;-44
2022/10/10 11:05:20;;;;;;;2.00;0.80;;;;;;;17.18;40.30;100304.16;1741424;82;21521;-44
2022/10/10 11:10:17;;;;;;;3.80;1.25;;;;;;;17.47;39.54;100302.97;1778653;79;21858;-44
2022/10/10 11:13:04;;;;;;;1.87;1.20;;;;;;;17.50;37.93;100308.46;1738615;82;20966;-45
2022/10/10 11:15:42;;;;;;;1.27;0.85;;;;;;;17.62;39.18;100306.78;1738940;82;21308;-44
2022/10/10 11:18:35;;;;;;;5.87;1.15;;;;;;;17.80;39.50;100304.94;1738800;82;21220;-45
2022/10/10 11:21:21;;;;;;;1.72;0.95;;;;;;;17.90;38.54;100302.63;1738729;82;21005;-45
2022/10/10 11:24:10;;;;;;;1.47;0.90;;;;;;;17.87;36.72;100295.15;1738707;82;21002;-45
2022/10/10 11:26:41;;;;;;;2.05;1.00;;;;;;;17.91;37.06;100298.72;1738441;82;20915;-45
2022/10/10 11:29:23;;;;;;;8.25;1.10;;;;;;;18.04;37.77;100293.86;1738691;82;21204;-45
2022/10/10 11:32:02;;;;;;;2.92;0.90;;;;;;;18.18;35.92;100291.16;1720226;82;20947;-45
2022/10/10 11:34:37;;;;;;;4.83;1.05;;;;;;;18.34;36.37;100294.94;1738840;82;21080;-45
2022/10/10 11:37:07;;;;;;;1.20;1.00;;;;;;;18.50;35.77;100293.17;1720319;82;21090;-45
2022/10/10 11:39:52;;;;;;;3.05;0.70;;;;;;;18.68;35.09;100290.50;1738598;82;21523;-45
2022/10/10 11:42:47;;;;;;;1.92;0.98;;;;;;;18.91;34.79;100288.15;1738518;82;21104;-45
2022/10/10 11:45:22;;;;;;;1.70;0.80;;;;;;;19.17;33.84;100290.47;1738368;82;21065;-45
2022/10/10 11:48:03;;;;;;;0.95;0.68;;;;;;;19.49;33.01;100288.50;1738467;82;21129;-45
2022/10/10 11:50:39;;;;;;;2.60;0.70;;;;;;;19.80;32.65;100287.43;1736088;82;21084;-45
2022/10/10 11:53:30;;;;;;;2.65;0.80;;;;;;;20.05;32.23;100288.67;1708888;84;21033;-45
2022/10/10 11:56:35;;;;;;;2.02;0.80;;;;;;;20.20;32.46;100281.32;1708977;83;21152;-45
2022/10/10 11:59:38;;;;;;;2.35;0.80;;;;;;;20.56;30.78;100283.30;1708961;84;20927;-45
2022/10/10 12:02:26;;;;;;;2.45;1.20;;;;;;;20.94;30.00;100284.19;1678431;85;21040;-45
2022/10/10 12:04:52;;;;;;;1.50;0.85;;;;;;;21.21;30.19;100288.48;1701625;84;21034;-45